PWSweather.com
Personal Weather Stations
Station Observations
KTXROWLE6
Ravens Nest, Rowlett, TX 75089

Ravens NestRowlett, TX 75089

Lat: 32.93105, Lon: -96.57368

Elevation: 556

Station Type: Davis Vantage Pro2 6152

http://rowlett.ws

High Low Average
Temperature 93.3°F34.1°C 75.7°F24.3°C 84.3°F29.1°C
Dew Point 78.0°F25.6°C 70.6°F21.4°C 73.7°F23.2°C
Winds 9.0 mph 14.5 kmh Calm Calm 2.0 mph ESE3.2 kmh ESE
Wind Gusts 10.0 mph16.1 kmh -- 5.0 mph8.0 kmh
Humidity 90% 51% 72%
Pressure 30.07 in1018.3 mb 29.99 in1015.6 mb -
Precipitation 0.00 in0.0 mm - -
Hour Temp Dew Point Humidity Winds Wind Gusts Pressure Precip Precip Rate Daily Precip Total
12:00 AM 81.9°F27.7°C 73.5°F23.1°C 76% Calm Calm 5.0 mph8.0 kmh 30.01 in1016.3 mb 0.00 in0.0 mm 0.00 in/hr0.0 mm/hr 0.00 in0.0 mm
12:05 AM 81.8°F27.7°C 73.8°F23.2°C 77% 1.0 mph SE1.6 kmh SE 5.0 mph8.0 kmh 30.02 in1016.6 mb 0.00 in0.0 mm 0.00 in/hr0.0 mm/hr 0.00 in0.0 mm
12:10 AM 81.6°F27.6°C 73.6°F23.1°C 77% 1.0 mph SE1.6 kmh SE 4.0 mph6.4 kmh 30.02 in1016.6 mb 0.00 in0.0 mm 0.00 in/hr0.0 mm/hr 0.00 in0.0 mm
12:15 AM 81.5°F27.5°C 73.5°F23.1°C 77% 4.0 mph SE6.4 kmh SE 7.0 mph11.3 kmh 30.02 in1016.6 mb 0.00 in0.0 mm 0.00 in/hr0.0 mm/hr 0.00 in0.0 mm
12:20 AM 81.4°F27.4°C 73.8°F23.2°C 78% Calm Calm 5.0 mph8.0 kmh 30.02 in1016.6 mb 0.00 in0.0 mm 0.00 in/hr0.0 mm/hr 0.00 in0.0 mm
12:25 AM 81.3°F27.4°C 73.7°F23.2°C 78% 2.0 mph SE3.2 kmh SE 4.0 mph6.4 kmh 30.02 in1016.6 mb 0.00 in0.0 mm 0.00 in/hr0.0 mm/hr 0.00 in0.0 mm
12:30 AM 81.2°F27.3°C 73.6°F23.1°C 78% Calm Calm 5.0 mph8.0 kmh 30.03 in1016.9 mb 0.00 in0.0 mm 0.00 in/hr0.0 mm/hr 0.00 in0.0 mm
12:35 AM 81.1°F27.3°C 73.9°F23.3°C 79% 3.0 mph SE4.8 kmh SE 5.0 mph8.0 kmh 30.02 in1016.6 mb 0.00 in0.0 mm 0.00 in/hr0.0 mm/hr 0.00 in0.0 mm
12:40 AM 80.9°F27.2°C 73.7°F23.2°C 79% 3.0 mph SE4.8 kmh SE 4.0 mph6.4 kmh 30.02 in1016.6 mb 0.00 in0.0 mm 0.00 in/hr0.0 mm/hr 0.00 in0.0 mm
12:45 AM 80.9°F27.2°C 73.7°F23.2°C 79% 1.0 mph SE1.6 kmh SE 4.0 mph6.4 kmh 30.02 in1016.6 mb 0.00 in0.0 mm 0.00 in/hr0.0 mm/hr 0.00 in0.0 mm
12:50 AM 80.7°F27.1°C 73.5°F23.1°C 79% 3.0 mph SE4.8 kmh SE 4.0 mph6.4 kmh 30.02 in1016.6 mb 0.00 in0.0 mm 0.00 in/hr0.0 mm/hr 0.00 in0.0 mm
12:55 AM 80.6°F27.0°C 73.8°F23.2°C 80% 1.0 mph SE1.6 kmh SE 4.0 mph6.4 kmh 30.03 in1016.9 mb 0.00 in0.0 mm 0.00 in/hr0.0 mm/hr 0.00 in0.0 mm
01:00 AM 80.5°F26.9°C 73.7°F23.2°C 80% Calm Calm 8.0 mph12.9 kmh 30.03 in1016.9 mb 0.00 in0.0 mm 0.00 in/hr0.0 mm/hr 0.00 in0.0 mm
01:05 AM 80.4°F26.9°C 73.6°F23.1°C 80% 2.0 mph SE3.2 kmh SE 4.0 mph6.4 kmh 30.03 in1016.9 mb 0.00 in0.0 mm 0.00 in/hr0.0 mm/hr 0.00 in0.0 mm
01:10 AM 80.3°F26.8°C 73.9°F23.3°C 81% 3.0 mph SE4.8 kmh SE 5.0 mph8.0 kmh 30.03 in1016.9 mb 0.00 in0.0 mm 0.00 in/hr0.0 mm/hr 0.00 in0.0 mm
01:15 AM 80.2°F26.8°C 73.8°F23.2°C 81% Calm Calm 5.0 mph8.0 kmh 30.03 in1016.9 mb 0.00 in0.0 mm 0.00 in/hr0.0 mm/hr 0.00 in0.0 mm
01:20 AM 80.1°F26.7°C 73.7°F23.2°C 81% 2.0 mph SE3.2 kmh SE 4.0 mph6.4 kmh 30.03 in1016.9 mb 0.00 in0.0 mm 0.00 in/hr0.0 mm/hr 0.00 in0.0 mm
01:25 AM 80.1°F26.7°C 73.7°F23.2°C 81% 2.0 mph SE3.2 kmh SE 4.0 mph6.4 kmh 30.03 in1016.9 mb 0.00 in0.0 mm 0.00 in/hr0.0 mm/hr 0.00 in0.0 mm
01:30 AM 80.0°F26.7°C 73.6°F23.1°C 81% 3.0 mph SE4.8 kmh SE 5.0 mph8.0 kmh 30.03 in1016.9 mb 0.00 in0.0 mm 0.00 in/hr0.0 mm/hr 0.00 in0.0 mm
01:35 AM 80.0°F26.7°C 73.6°F23.1°C 81% 1.0 mph SE1.6 kmh SE 5.0 mph8.0 kmh 30.03 in1016.9 mb 0.00 in0.0 mm 0.00 in/hr0.0 mm/hr 0.00 in0.0 mm
01:40 AM 79.9°F26.6°C 73.5°F23.1°C 81% 3.0 mph SE4.8 kmh SE 5.0 mph8.0 kmh 30.02 in1016.6 mb 0.00 in0.0 mm 0.00 in/hr0.0 mm/hr 0.00 in0.0 mm
01:45 AM 79.8°F26.6°C 73.4°F23.0°C 81% 3.0 mph SE4.8 kmh SE 4.0 mph6.4 kmh 30.02 in1016.6 mb 0.00 in0.0 mm 0.00 in/hr0.0 mm/hr 0.00 in0.0 mm
01:50 AM 79.7°F26.5°C 73.7°F23.2°C 82% Calm Calm 5.0 mph8.0 kmh 30.02 in1016.6 mb 0.00 in0.0 mm 0.00 in/hr0.0 mm/hr 0.00 in0.0 mm
01:55 AM 79.7°F26.5°C 73.7°F23.2°C 82% Calm Calm 5.0 mph8.0 kmh 30.01 in1016.3 mb 0.00 in0.0 mm 0.00 in/hr0.0 mm/hr 0.00 in0.0 mm
02:00 AM 79.6°F26.4°C 73.6°F23.1°C 82% 1.0 mph SE1.6 kmh SE 4.0 mph6.4 kmh 30.02 in1016.6 mb 0.00 in0.0 mm 0.00 in/hr0.0 mm/hr 0.00 in0.0 mm
02:05 AM 79.5°F26.4°C 73.5°F23.1°C 82% 2.0 mph SE3.2 kmh SE 4.0 mph6.4 kmh 30.02 in1016.6 mb 0.00 in0.0 mm 0.00 in/hr0.0 mm/hr 0.00 in0.0 mm
02:10 AM 79.5°F26.4°C 73.8°F23.2°C 83% 4.0 mph SE6.4 kmh SE 4.0 mph6.4 kmh 30.01 in1016.3 mb 0.00 in0.0 mm 0.00 in/hr0.0 mm/hr 0.00 in0.0 mm
02:15 AM 79.4°F26.3°C 73.7°F23.2°C 83% 1.0 mph SE1.6 kmh SE 7.0 mph11.3 kmh 30.01 in1016.3 mb 0.00 in0.0 mm 0.00 in/hr0.0 mm/hr 0.00 in0.0 mm
02:20 AM 79.3°F26.3°C 73.6°F23.1°C 83% 4.0 mph SE6.4 kmh SE 7.0 mph11.3 kmh 30.01 in1016.3 mb 0.00 in0.0 mm 0.00 in/hr0.0 mm/hr 0.00 in0.0 mm
02:25 AM 79.2°F26.2°C 73.5°F23.1°C 83% 2.0 mph ESE3.2 kmh ESE 7.0 mph11.3 kmh 30.01 in1016.3 mb 0.00 in0.0 mm 0.00 in/hr0.0 mm/hr 0.00 in0.0 mm
02:30 AM 79.2°F26.2°C 73.5°F23.1°C 83% Calm Calm 8.0 mph12.9 kmh 30.01 in1016.3 mb 0.00 in0.0 mm 0.00 in/hr0.0 mm/hr 0.00 in0.0 mm
02:35 AM 79.1°F26.2°C 73.4°F23.0°C 83% 3.0 mph SE4.8 kmh SE 5.0 mph8.0 kmh 30.01 in1016.3 mb 0.00 in0.0 mm 0.00 in/hr0.0 mm/hr 0.00 in0.0 mm
02:40 AM 79.0°F26.1°C 73.3°F22.9°C 83% 3.0 mph SE4.8 kmh SE 4.0 mph6.4 kmh 30.01 in1016.3 mb 0.00 in0.0 mm 0.00 in/hr0.0 mm/hr 0.00 in0.0 mm
02:45 AM 79.0°F26.1°C 73.7°F23.2°C 84% 3.0 mph SE4.8 kmh SE 8.0 mph12.9 kmh 30.01 in1016.3 mb 0.00 in0.0 mm 0.00 in/hr0.0 mm/hr 0.00 in0.0 mm
02:50 AM 78.9°F26.1°C 73.6°F23.1°C 84% 2.0 mph SE3.2 kmh SE 4.0 mph6.4 kmh 30.01 in1016.3 mb 0.00 in0.0 mm 0.00 in/hr0.0 mm/hr 0.00 in0.0 mm
02:55 AM 78.8°F26.0°C 73.5°F23.1°C 84% Calm Calm 5.0 mph8.0 kmh 30.00 in1015.9 mb 0.00 in0.0 mm 0.00 in/hr0.0 mm/hr 0.00 in0.0 mm
03:00 AM 78.7°F25.9°C 73.4°F23.0°C 84% Calm Calm 5.0 mph8.0 kmh 30.00 in1015.9 mb 0.00 in0.0 mm 0.00 in/hr0.0 mm/hr 0.00 in0.0 mm
03:05 AM 78.7°F25.9°C 73.4°F23.0°C 84% Calm Calm 4.0 mph6.4 kmh 30.00 in1015.9 mb 0.00 in0.0 mm 0.00 in/hr0.0 mm/hr 0.00 in0.0 mm
03:10 AM 78.7°F25.9°C 73.4°F23.0°C 84% 2.0 mph SE3.2 kmh SE 3.0 mph4.8 kmh 30.00 in1015.9 mb 0.00 in0.0 mm 0.00 in/hr0.0 mm/hr 0.00 in0.0 mm
03:15 AM 78.6°F25.9°C 73.3°F22.9°C 84% Calm Calm 4.0 mph6.4 kmh 30.00 in1015.9 mb 0.00 in0.0 mm 0.00 in/hr0.0 mm/hr 0.00 in0.0 mm
03:20 AM 78.5°F25.8°C 73.2°F22.9°C 84% Calm Calm 4.0 mph6.4 kmh 30.00 in1015.9 mb 0.00 in0.0 mm 0.00 in/hr0.0 mm/hr 0.00 in0.0 mm
03:25 AM 78.4°F25.8°C 73.1°F22.8°C 84% 3.0 mph SE4.8 kmh SE 4.0 mph6.4 kmh 30.00 in1015.9 mb 0.00 in0.0 mm 0.00 in/hr0.0 mm/hr 0.00 in0.0 mm
03:30 AM 78.4°F25.8°C 73.1°F22.8°C 84% Calm Calm 3.0 mph4.8 kmh 30.00 in1015.9 mb 0.00 in0.0 mm 0.00 in/hr0.0 mm/hr 0.00 in0.0 mm
03:35 AM 78.3°F25.7°C 73.0°F22.8°C 84% Calm Calm 2.0 mph3.2 kmh 29.99 in1015.6 mb 0.00 in0.0 mm 0.00 in/hr0.0 mm/hr 0.00 in0.0 mm
03:40 AM 78.1°F25.6°C 72.8°F22.7°C 84% Calm Calm 3.0 mph4.8 kmh 30.00 in1015.9 mb 0.00 in0.0 mm 0.00 in/hr0.0 mm/hr 0.00 in0.0 mm
03:45 AM 78.0°F25.6°C 73.1°F22.8°C 85% Calm Calm 4.0 mph6.4 kmh 30.00 in1015.9 mb 0.00 in0.0 mm 0.00 in/hr0.0 mm/hr 0.00 in0.0 mm
03:50 AM 78.0°F25.6°C 73.1°F22.8°C 85% Calm Calm 2.0 mph3.2 kmh 30.00 in1015.9 mb 0.00 in0.0 mm 0.00 in/hr0.0 mm/hr 0.00 in0.0 mm
03:55 AM 77.9°F25.5°C 73.0°F22.8°C 85% Calm Calm 1.0 mph1.6 kmh 30.00 in1015.9 mb 0.00 in0.0 mm 0.00 in/hr0.0 mm/hr 0.00 in0.0 mm
04:00 AM 77.8°F25.4°C 72.9°F22.7°C 85% Calm Calm 2.0 mph3.2 kmh 30.00 in1015.9 mb 0.00 in0.0 mm 0.00 in/hr0.0 mm/hr 0.00 in0.0 mm
04:05 AM 77.7°F25.4°C 73.1°F22.8°C 86% 2.0 mph SE3.2 kmh SE 3.0 mph4.8 kmh 30.00 in1015.9 mb 0.00 in0.0 mm 0.00 in/hr0.0 mm/hr 0.00 in0.0 mm
04:10 AM 77.5°F25.3°C 72.9°F22.7°C 86% 3.0 mph SE4.8 kmh SE 3.0 mph4.8 kmh 30.00 in1015.9 mb 0.00 in0.0 mm 0.00 in/hr0.0 mm/hr 0.00 in0.0 mm
04:15 AM 77.4°F25.2°C 72.8°F22.7°C 86% 3.0 mph SE4.8 kmh SE 4.0 mph6.4 kmh 30.00 in1015.9 mb 0.00 in0.0 mm 0.00 in/hr0.0 mm/hr 0.00 in0.0 mm
04:20 AM 77.3°F25.2°C 72.7°F22.6°C 86% Calm Calm 5.0 mph8.0 kmh 30.00 in1015.9 mb 0.00 in0.0 mm 0.00 in/hr0.0 mm/hr 0.00 in0.0 mm
04:25 AM 77.2°F25.1°C 73.0°F22.8°C 87% Calm Calm 2.0 mph3.2 kmh 30.00 in1015.9 mb 0.00 in0.0 mm 0.00 in/hr0.0 mm/hr 0.00 in0.0 mm
04:30 AM 77.1°F25.1°C 72.9°F22.7°C 87% Calm Calm 4.0 mph6.4 kmh 30.00 in1015.9 mb 0.00 in0.0 mm 0.00 in/hr0.0 mm/hr 0.00 in0.0 mm
04:35 AM 77.0°F25.0°C 72.8°F22.7°C 87% Calm Calm 3.0 mph4.8 kmh 30.00 in1015.9 mb 0.00 in0.0 mm 0.00 in/hr0.0 mm/hr 0.00 in0.0 mm
04:40 AM 76.9°F24.9°C 72.7°F22.6°C 87% Calm Calm 3.0 mph4.8 kmh 30.00 in1015.9 mb 0.00 in0.0 mm 0.00 in/hr0.0 mm/hr 0.00 in0.0 mm
04:45 AM 76.9°F24.9°C 72.7°F22.6°C 87% Calm Calm 7.0 mph11.3 kmh 30.01 in1016.3 mb 0.00 in0.0 mm 0.00 in/hr0.0 mm/hr 0.00 in0.0 mm
04:50 AM 76.9°F24.9°C 72.7°F22.6°C 87% 1.0 mph ESE1.6 kmh ESE 5.0 mph8.0 kmh 30.00 in1015.9 mb 0.00 in0.0 mm 0.00 in/hr0.0 mm/hr 0.00 in0.0 mm
04:55 AM 76.9°F24.9°C 72.7°F22.6°C 87% Calm Calm 4.0 mph6.4 kmh 30.01 in1016.3 mb 0.00 in0.0 mm 0.00 in/hr0.0 mm/hr 0.00 in0.0 mm
05:00 AM 76.8°F24.9°C 72.6°F22.6°C 87% Calm Calm 2.0 mph3.2 kmh 30.00 in1015.9 mb 0.00 in0.0 mm 0.00 in/hr0.0 mm/hr 0.00 in0.0 mm
05:05 AM 76.8°F24.9°C 72.9°F22.7°C 88% 2.0 mph ESE3.2 kmh ESE 4.0 mph6.4 kmh 30.01 in1016.3 mb 0.00 in0.0 mm 0.00 in/hr0.0 mm/hr 0.00 in0.0 mm
05:10 AM 76.8°F24.9°C 72.9°F22.7°C 88% Calm Calm 2.0 mph3.2 kmh 30.01 in1016.3 mb 0.00 in0.0 mm 0.00 in/hr0.0 mm/hr 0.00 in0.0 mm
05:15 AM 76.7°F24.8°C 72.8°F22.7°C 88% Calm Calm 1.0 mph1.6 kmh 30.01 in1016.3 mb 0.00 in0.0 mm 0.00 in/hr0.0 mm/hr 0.00 in0.0 mm
05:20 AM 76.7°F24.8°C 72.8°F22.7°C 88% Calm Calm 3.0 mph4.8 kmh 30.01 in1016.3 mb 0.00 in0.0 mm 0.00 in/hr0.0 mm/hr 0.00 in0.0 mm
05:25 AM 76.7°F24.8°C 72.8°F22.7°C 88% Calm Calm 3.0 mph4.8 kmh 30.01 in1016.3 mb 0.00 in0.0 mm 0.00 in/hr0.0 mm/hr 0.00 in0.0 mm
05:30 AM 76.6°F24.8°C 72.7°F22.6°C 88% 1.0 mph ESE1.6 kmh ESE 2.0 mph3.2 kmh 30.01 in1016.3 mb 0.00 in0.0 mm 0.00 in/hr0.0 mm/hr 0.00 in0.0 mm
05:35 AM 76.6°F24.8°C 72.7°F22.6°C 88% Calm Calm 4.0 mph6.4 kmh 30.02 in1016.6 mb 0.00 in0.0 mm 0.00 in/hr0.0 mm/hr 0.00 in0.0 mm
05:40 AM 76.6°F24.8°C 72.7°F22.6°C 88% 1.0 mph ESE1.6 kmh ESE 1.0 mph1.6 kmh 30.02 in1016.6 mb 0.00 in0.0 mm 0.00 in/hr0.0 mm/hr 0.00 in0.0 mm
05:45 AM 76.6°F24.8°C 72.7°F22.6°C 88% Calm Calm 5.0 mph8.0 kmh 30.02 in1016.6 mb 0.00 in0.0 mm 0.00 in/hr0.0 mm/hr 0.00 in0.0 mm
05:50 AM 76.5°F24.7°C 72.6°F22.6°C 88% Calm Calm 2.0 mph3.2 kmh 30.02 in1016.6 mb 0.00 in0.0 mm 0.00 in/hr0.0 mm/hr 0.00 in0.0 mm
05:55 AM 76.5°F24.7°C 72.6°F22.6°C 88% 1.0 mph ESE1.6 kmh ESE 2.0 mph3.2 kmh 30.02 in1016.6 mb 0.00 in0.0 mm 0.00 in/hr0.0 mm/hr 0.00 in0.0 mm
06:00 AM 76.4°F24.7°C 72.9°F22.7°C 89% Calm Calm 2.0 mph3.2 kmh 30.02 in1016.6 mb 0.00 in0.0 mm 0.00 in/hr0.0 mm/hr 0.00 in0.0 mm
06:05 AM 76.4°F24.7°C 72.9°F22.7°C 89% Calm Calm -- 30.03 in1016.9 mb 0.00 in0.0 mm 0.00 in/hr0.0 mm/hr 0.00 in0.0 mm
06:10 AM 76.3°F24.6°C 72.8°F22.7°C 89% Calm Calm -- 30.03 in1016.9 mb 0.00 in0.0 mm 0.00 in/hr0.0 mm/hr 0.00 in0.0 mm
06:15 AM 76.2°F24.6°C 72.7°F22.6°C 89% Calm Calm -- 30.03 in1016.9 mb 0.00 in0.0 mm 0.00 in/hr0.0 mm/hr 0.00 in0.0 mm
06:20 AM 76.1°F24.5°C 72.6°F22.6°C 89% Calm Calm -- 30.03 in1016.9 mb 0.00 in0.0 mm 0.00 in/hr0.0 mm/hr 0.00 in0.0 mm
06:25 AM 76.0°F24.4°C 72.5°F22.5°C 89% Calm Calm -- 30.03 in1016.9 mb 0.00 in0.0 mm 0.00 in/hr0.0 mm/hr 0.00 in0.0 mm
06:30 AM 75.9°F24.4°C 72.4°F22.4°C 89% Calm Calm -- 30.03 in1016.9 mb 0.00 in0.0 mm 0.00 in/hr0.0 mm/hr 0.00 in0.0 mm
06:35 AM 75.9°F24.4°C 72.4°F22.4°C 89% Calm Calm 1.0 mph1.6 kmh 30.04 in1017.3 mb 0.00 in0.0 mm 0.00 in/hr0.0 mm/hr 0.00 in0.0 mm
06:40 AM 75.8°F24.3°C 72.6°F22.6°C 90% Calm Calm 1.0 mph1.6 kmh 30.04 in1017.3 mb 0.00 in0.0 mm 0.00 in/hr0.0 mm/hr 0.00 in0.0 mm
06:45 AM 75.7°F24.3°C 72.5°F22.5°C 90% Calm Calm 3.0 mph4.8 kmh 30.04 in1017.3 mb 0.00 in0.0 mm 0.00 in/hr0.0 mm/hr 0.00 in0.0 mm
06:50 AM 75.7°F24.3°C 72.5°F22.5°C 90% Calm Calm 3.0 mph4.8 kmh 30.04 in1017.3 mb 0.00 in0.0 mm 0.00 in/hr0.0 mm/hr 0.00 in0.0 mm
06:55 AM 75.8°F24.3°C 72.6°F22.6°C 90% Calm Calm 2.0 mph3.2 kmh 30.04 in1017.3 mb 0.00 in0.0 mm 0.00 in/hr0.0 mm/hr 0.00 in0.0 mm
07:00 AM 75.8°F24.3°C 72.6°F22.6°C 90% 1.0 mph ESE1.6 kmh ESE 3.0 mph4.8 kmh 30.04 in1017.3 mb 0.00 in0.0 mm 0.00 in/hr0.0 mm/hr 0.00 in0.0 mm
07:05 AM 75.8°F24.3°C 72.6°F22.6°C 90% Calm Calm 3.0 mph4.8 kmh 30.04 in1017.3 mb 0.00 in0.0 mm 0.00 in/hr0.0 mm/hr 0.00 in0.0 mm
07:10 AM 75.9°F24.4°C 72.7°F22.6°C 90% 1.0 mph ESE1.6 kmh ESE 3.0 mph4.8 kmh 30.04 in1017.3 mb 0.00 in0.0 mm 0.00 in/hr0.0 mm/hr 0.00 in0.0 mm
07:15 AM 75.9°F24.4°C 72.7°F22.6°C 90% Calm Calm 1.0 mph1.6 kmh 30.04 in1017.3 mb 0.00 in0.0 mm 0.00 in/hr0.0 mm/hr 0.00 in0.0 mm
07:20 AM 76.0°F24.4°C 72.8°F22.7°C 90% Calm Calm 1.0 mph1.6 kmh 30.05 in1017.6 mb 0.00 in0.0 mm 0.00 in/hr0.0 mm/hr 0.00 in0.0 mm
07:25 AM 76.2°F24.6°C 72.7°F22.6°C 89% Calm Calm 2.0 mph3.2 kmh 30.05 in1017.6 mb 0.00 in0.0 mm 0.00 in/hr0.0 mm/hr 0.00 in0.0 mm
07:30 AM 76.4°F24.7°C 72.9°F22.7°C 89% Calm Calm 1.0 mph1.6 kmh 30.05 in1017.6 mb 0.00 in0.0 mm 0.00 in/hr0.0 mm/hr 0.00 in0.0 mm
07:35 AM 76.6°F24.8°C 73.1°F22.8°C 89% Calm Calm -- 30.05 in1017.6 mb 0.00 in0.0 mm 0.00 in/hr0.0 mm/hr 0.00 in0.0 mm
07:40 AM 76.8°F24.9°C 73.3°F22.9°C 89% Calm Calm 3.0 mph4.8 kmh 30.05 in1017.6 mb 0.00 in0.0 mm 0.00 in/hr0.0 mm/hr 0.00 in0.0 mm
07:45 AM 77.0°F25.0°C 73.1°F22.8°C 88% Calm Calm 3.0 mph4.8 kmh 30.06 in1017.9 mb 0.00 in0.0 mm 0.00 in/hr0.0 mm/hr 0.00 in0.0 mm
07:50 AM 77.3°F25.2°C 73.4°F23.0°C 88% Calm Calm 3.0 mph4.8 kmh 30.06 in1017.9 mb 0.00 in0.0 mm 0.00 in/hr0.0 mm/hr 0.00 in0.0 mm
07:55 AM 77.5°F25.3°C 73.3°F22.9°C 87% Calm Calm 3.0 mph4.8 kmh 30.06 in1017.9 mb 0.00 in0.0 mm 0.00 in/hr0.0 mm/hr 0.00 in0.0 mm
08:00 AM 77.8°F25.4°C 73.6°F23.1°C 87% 1.0 mph ESE1.6 kmh ESE 3.0 mph4.8 kmh 30.06 in1017.9 mb 0.00 in0.0 mm 0.00 in/hr0.0 mm/hr 0.00 in0.0 mm
08:05 AM 78.0°F25.6°C 73.4°F23.0°C 86% Calm Calm 3.0 mph4.8 kmh 30.07 in1018.3 mb 0.00 in0.0 mm 0.00 in/hr0.0 mm/hr 0.00 in0.0 mm
08:10 AM 78.3°F25.7°C 73.4°F23.0°C 85% 2.0 mph ESE3.2 kmh ESE 8.0 mph12.9 kmh 30.07 in1018.3 mb 0.00 in0.0 mm 0.00 in/hr0.0 mm/hr 0.00 in0.0 mm
08:15 AM 78.4°F25.8°C 73.5°F23.1°C 85% 3.0 mph ESE4.8 kmh ESE 5.0 mph8.0 kmh 30.07 in1018.3 mb 0.00 in0.0 mm 0.00 in/hr0.0 mm/hr 0.00 in0.0 mm
08:20 AM 78.6°F25.9°C 73.3°F22.9°C 84% 7.0 mph ESE11.3 kmh ESE 8.0 mph12.9 kmh 30.07 in1018.3 mb 0.00 in0.0 mm 0.00 in/hr0.0 mm/hr 0.00 in0.0 mm
08:25 AM 78.7°F25.9°C 73.4°F23.0°C 84% 2.0 mph ESE3.2 kmh ESE 7.0 mph11.3 kmh 30.07 in1018.3 mb 0.00 in0.0 mm 0.00 in/hr0.0 mm/hr 0.00 in0.0 mm
08:30 AM 78.9°F26.1°C 73.6°F23.1°C 84% 1.0 mph ESE1.6 kmh ESE 5.0 mph8.0 kmh 30.07 in1018.3 mb 0.00 in0.0 mm 0.00 in/hr0.0 mm/hr 0.00 in0.0 mm
08:35 AM 79.3°F26.3°C 74.0°F23.3°C 84% 2.0 mph ESE3.2 kmh ESE 4.0 mph6.4 kmh 30.07 in1018.3 mb 0.00 in0.0 mm 0.00 in/hr0.0 mm/hr 0.00 in0.0 mm
08:40 AM 79.6°F26.4°C 73.9°F23.3°C 83% Calm Calm 4.0 mph6.4 kmh 30.07 in1018.3 mb 0.00 in0.0 mm 0.00 in/hr0.0 mm/hr 0.00 in0.0 mm
08:45 AM 79.8°F26.6°C 74.1°F23.4°C 83% 3.0 mph ESE4.8 kmh ESE 5.0 mph8.0 kmh 30.07 in1018.3 mb 0.00 in0.0 mm 0.00 in/hr0.0 mm/hr 0.00 in0.0 mm
08:50 AM 80.1°F26.7°C 74.0°F23.3°C 82% 1.0 mph ESE1.6 kmh ESE 5.0 mph8.0 kmh 30.07 in1018.3 mb 0.00 in0.0 mm 0.00 in/hr0.0 mm/hr 0.00 in0.0 mm
08:55 AM 80.3°F26.8°C 74.2°F23.4°C 82% Calm Calm 7.0 mph11.3 kmh 30.07 in1018.3 mb 0.00 in0.0 mm 0.00 in/hr0.0 mm/hr 0.00 in0.0 mm
09:00 AM 80.7°F27.1°C 74.3°F23.5°C 81% 3.0 mph ESE4.8 kmh ESE 4.0 mph6.4 kmh 30.07 in1018.3 mb 0.00 in0.0 mm 0.00 in/hr0.0 mm/hr 0.00 in0.0 mm
09:05 AM 80.8°F27.1°C 74.4°F23.6°C 81% 3.0 mph SE4.8 kmh SE 9.0 mph14.5 kmh 30.07 in1018.3 mb 0.00 in0.0 mm 0.00 in/hr0.0 mm/hr 0.00 in0.0 mm
09:10 AM 80.9°F27.2°C 74.5°F23.6°C 81% Calm Calm 9.0 mph14.5 kmh 30.07 in1018.3 mb 0.00 in0.0 mm 0.00 in/hr0.0 mm/hr 0.00 in0.0 mm
09:15 AM 81.0°F27.2°C 74.2°F23.4°C 80% Calm Calm 7.0 mph11.3 kmh 30.07 in1018.3 mb 0.00 in0.0 mm 0.00 in/hr0.0 mm/hr 0.00 in0.0 mm
09:20 AM 81.1°F27.3°C 74.3°F23.5°C 80% 4.0 mph ESE6.4 kmh ESE 5.0 mph8.0 kmh 30.07 in1018.3 mb 0.00 in0.0 mm 0.00 in/hr0.0 mm/hr 0.00 in0.0 mm
09:25 AM 81.4°F27.4°C 74.6°F23.7°C 80% 1.0 mph ESE1.6 kmh ESE 5.0 mph8.0 kmh 30.07 in1018.3 mb 0.00 in0.0 mm 0.00 in/hr0.0 mm/hr 0.00 in0.0 mm
09:30 AM 81.7°F27.6°C 74.9°F23.8°C 80% 2.0 mph ESE3.2 kmh ESE 7.0 mph11.3 kmh 30.07 in1018.3 mb 0.00 in0.0 mm 0.00 in/hr0.0 mm/hr 0.00 in0.0 mm
09:35 AM 81.8°F27.7°C 75.0°F23.9°C 80% Calm Calm 4.0 mph6.4 kmh 30.07 in1018.3 mb 0.00 in0.0 mm 0.00 in/hr0.0 mm/hr 0.00 in0.0 mm
09:40 AM 82.0°F27.8°C 75.2°F24.0°C 80% 3.0 mph ESE4.8 kmh ESE 5.0 mph8.0 kmh 30.07 in1018.3 mb 0.00 in0.0 mm 0.00 in/hr0.0 mm/hr 0.00 in0.0 mm
09:45 AM 82.1°F27.8°C 74.9°F23.8°C 79% 2.0 mph SE3.2 kmh SE 7.0 mph11.3 kmh 30.06 in1017.9 mb 0.00 in0.0 mm 0.00 in/hr0.0 mm/hr 0.00 in0.0 mm
09:50 AM 82.1°F27.8°C 75.2°F24.0°C 80% Calm Calm 5.0 mph8.0 kmh 30.06 in1017.9 mb 0.00 in0.0 mm 0.00 in/hr0.0 mm/hr 0.00 in0.0 mm
09:55 AM 82.5°F28.1°C 76.0°F24.4°C 81% Calm Calm 3.0 mph4.8 kmh 30.06 in1017.9 mb 0.00 in0.0 mm 0.00 in/hr0.0 mm/hr 0.00 in0.0 mm
10:00 AM 82.8°F28.2°C 75.5°F24.2°C 79% Calm Calm 5.0 mph8.0 kmh 30.06 in1017.9 mb 0.00 in0.0 mm 0.00 in/hr0.0 mm/hr 0.00 in0.0 mm
10:05 AM 82.9°F28.3°C 76.0°F24.4°C 80% 3.0 mph SE4.8 kmh SE 3.0 mph4.8 kmh 30.06 in1017.9 mb 0.00 in0.0 mm 0.00 in/hr0.0 mm/hr 0.00 in0.0 mm
10:10 AM 83.1°F28.4°C 75.8°F24.3°C 79% Calm Calm 5.0 mph8.0 kmh 30.06 in1017.9 mb 0.00 in0.0 mm 0.00 in/hr0.0 mm/hr 0.00 in0.0 mm
10:15 AM 83.3°F28.5°C 76.0°F24.4°C 79% 3.0 mph SE4.8 kmh SE 4.0 mph6.4 kmh 30.06 in1017.9 mb 0.00 in0.0 mm 0.00 in/hr0.0 mm/hr 0.00 in0.0 mm
10:20 AM 83.5°F28.6°C 76.2°F24.6°C 79% Calm Calm 4.0 mph6.4 kmh 30.06 in1017.9 mb 0.00 in0.0 mm 0.00 in/hr0.0 mm/hr 0.00 in0.0 mm
10:25 AM 83.8°F28.8°C 75.7°F24.3°C 77% Calm Calm 5.0 mph8.0 kmh 30.06 in1017.9 mb 0.00 in0.0 mm 0.00 in/hr0.0 mm/hr 0.00 in0.0 mm
10:30 AM 83.8°F28.8°C 76.1°F24.5°C 78% 2.0 mph SE3.2 kmh SE 6.0 mph9.7 kmh 30.06 in1017.9 mb 0.00 in0.0 mm 0.00 in/hr0.0 mm/hr 0.00 in0.0 mm
10:35 AM 84.0°F28.9°C 75.9°F24.4°C 77% 1.0 mph SE1.6 kmh SE 6.0 mph9.7 kmh 30.06 in1017.9 mb 0.00 in0.0 mm 0.00 in/hr0.0 mm/hr 0.00 in0.0 mm
10:40 AM 84.1°F28.9°C 76.0°F24.4°C 77% 3.0 mph ESE4.8 kmh ESE 4.0 mph6.4 kmh 30.06 in1017.9 mb 0.00 in0.0 mm 0.00 in/hr0.0 mm/hr 0.00 in0.0 mm
10:45 AM 84.3°F29.1°C 76.2°F24.6°C 77% 2.0 mph ESE3.2 kmh ESE 7.0 mph11.3 kmh 30.05 in1017.6 mb 0.00 in0.0 mm 0.00 in/hr0.0 mm/hr 0.00 in0.0 mm
10:50 AM 84.6°F29.2°C 76.1°F24.5°C 76% 1.0 mph ESE1.6 kmh ESE 7.0 mph11.3 kmh 30.06 in1017.9 mb 0.00 in0.0 mm 0.00 in/hr0.0 mm/hr 0.00 in0.0 mm
10:55 AM 85.0°F29.4°C 76.5°F24.7°C 76% 3.0 mph ESE4.8 kmh ESE 7.0 mph11.3 kmh 30.06 in1017.9 mb 0.00 in0.0 mm 0.00 in/hr0.0 mm/hr 0.00 in0.0 mm
11:00 AM 85.0°F29.4°C 76.5°F24.7°C 76% 2.0 mph ESE3.2 kmh ESE 8.0 mph12.9 kmh 30.05 in1017.6 mb 0.00 in0.0 mm 0.00 in/hr0.0 mm/hr 0.00 in0.0 mm
11:05 AM 85.1°F29.5°C 76.2°F24.6°C 75% Calm Calm 8.0 mph12.9 kmh 30.05 in1017.6 mb 0.00 in0.0 mm 0.00 in/hr0.0 mm/hr 0.00 in0.0 mm
11:10 AM 85.2°F29.6°C 76.3°F24.6°C 75% 1.0 mph SE1.6 kmh SE 5.0 mph8.0 kmh 30.05 in1017.6 mb 0.00 in0.0 mm 0.00 in/hr0.0 mm/hr 0.00 in0.0 mm
11:15 AM 85.4°F29.7°C 76.5°F24.7°C 75% Calm Calm 4.0 mph6.4 kmh 30.05 in1017.6 mb 0.00 in0.0 mm 0.00 in/hr0.0 mm/hr 0.00 in0.0 mm
11:20 AM 85.9°F29.9°C 76.6°F24.8°C 74% 3.0 mph ESE4.8 kmh ESE 5.0 mph8.0 kmh 30.05 in1017.6 mb 0.00 in0.0 mm 0.00 in/hr0.0 mm/hr 0.00 in0.0 mm
11:25 AM 86.3°F30.2°C 77.0°F25.0°C 74% 1.0 mph ESE1.6 kmh ESE 4.0 mph6.4 kmh 30.05 in1017.6 mb 0.00 in0.0 mm 0.00 in/hr0.0 mm/hr 0.00 in0.0 mm
11:30 AM 86.6°F30.3°C 76.8°F24.9°C 73% 4.0 mph E6.4 kmh E 8.0 mph12.9 kmh 30.05 in1017.6 mb 0.00 in0.0 mm 0.00 in/hr0.0 mm/hr 0.00 in0.0 mm
11:35 AM 86.6°F30.3°C 76.8°F24.9°C 73% 2.0 mph ESE3.2 kmh ESE 5.0 mph8.0 kmh 30.05 in1017.6 mb 0.00 in0.0 mm 0.00 in/hr0.0 mm/hr 0.00 in0.0 mm
11:40 AM 86.6°F30.3°C 77.2°F25.1°C 74% Calm Calm 4.0 mph6.4 kmh 30.05 in1017.6 mb 0.00 in0.0 mm 0.00 in/hr0.0 mm/hr 0.00 in0.0 mm
11:45 AM 86.9°F30.5°C 76.7°F24.8°C 72% 3.0 mph ESE4.8 kmh ESE 7.0 mph11.3 kmh 30.05 in1017.6 mb 0.00 in0.0 mm 0.00 in/hr0.0 mm/hr 0.00 in0.0 mm
11:50 AM 86.9°F30.5°C 77.1°F25.1°C 73% 4.0 mph ESE6.4 kmh ESE 7.0 mph11.3 kmh 30.05 in1017.6 mb 0.00 in0.0 mm 0.00 in/hr0.0 mm/hr 0.00 in0.0 mm
11:55 AM 87.1°F30.6°C 76.5°F24.7°C 71% Calm Calm 5.0 mph8.0 kmh 30.05 in1017.6 mb 0.00 in0.0 mm 0.00 in/hr0.0 mm/hr 0.00 in0.0 mm
12:00 PM 87.4°F30.8°C 78.0°F25.6°C 74% 3.0 mph ESE4.8 kmh ESE 5.0 mph8.0 kmh 30.05 in1017.6 mb 0.00 in0.0 mm 0.00 in/hr0.0 mm/hr 0.00 in0.0 mm
12:05 PM 87.7°F30.9°C 77.0°F25.0°C 71% 4.0 mph ESE6.4 kmh ESE 5.0 mph8.0 kmh 30.05 in1017.6 mb 0.00 in0.0 mm 0.00 in/hr0.0 mm/hr 0.00 in0.0 mm
12:10 PM 87.8°F31.0°C 75.4°F24.1°C 67% Calm Calm 7.0 mph11.3 kmh 30.05 in1017.6 mb 0.00 in0.0 mm 0.00 in/hr0.0 mm/hr 0.00 in0.0 mm
12:15 PM 87.8°F31.0°C 75.8°F24.3°C 68% Calm Calm 7.0 mph11.3 kmh 30.05 in1017.6 mb 0.00 in0.0 mm 0.00 in/hr0.0 mm/hr 0.00 in0.0 mm
12:20 PM 88.0°F31.1°C 76.0°F24.4°C 68% 1.0 mph SE1.6 kmh SE 5.0 mph8.0 kmh 30.05 in1017.6 mb 0.00 in0.0 mm 0.00 in/hr0.0 mm/hr 0.00 in0.0 mm
12:25 PM 88.1°F31.2°C 77.0°F25.0°C 70% 4.0 mph SE6.4 kmh SE 4.0 mph6.4 kmh 30.04 in1017.3 mb 0.00 in0.0 mm 0.00 in/hr0.0 mm/hr 0.00 in0.0 mm
12:30 PM 88.0°F31.1°C 75.6°F24.2°C 67% Calm Calm 6.0 mph9.7 kmh 30.04 in1017.3 mb 0.00 in0.0 mm 0.00 in/hr0.0 mm/hr 0.00 in0.0 mm
12:35 PM 88.5°F31.4°C 76.9°F24.9°C 69% 4.0 mph SE6.4 kmh SE 5.0 mph8.0 kmh 30.04 in1017.3 mb 0.00 in0.0 mm 0.00 in/hr0.0 mm/hr 0.00 in0.0 mm
12:40 PM 89.1°F31.7°C 77.5°F25.3°C 69% Calm Calm 5.0 mph8.0 kmh 30.04 in1017.3 mb 0.00 in0.0 mm 0.00 in/hr0.0 mm/hr 0.00 in0.0 mm
12:45 PM 89.6°F32.0°C 76.2°F24.6°C 65% 5.0 mph E8.0 kmh E 7.0 mph11.3 kmh 30.04 in1017.3 mb 0.00 in0.0 mm 0.00 in/hr0.0 mm/hr 0.00 in0.0 mm
12:50 PM 89.7°F32.1°C 76.7°F24.8°C 66% Calm Calm 3.0 mph4.8 kmh 30.04 in1017.3 mb 0.00 in0.0 mm 0.00 in/hr0.0 mm/hr 0.00 in0.0 mm
12:55 PM 89.4°F31.9°C 76.5°F24.7°C 66% Calm Calm 3.0 mph4.8 kmh 30.04 in1017.3 mb 0.00 in0.0 mm 0.00 in/hr0.0 mm/hr 0.00 in0.0 mm
01:00 PM 88.9°F31.6°C 76.0°F24.4°C 66% Calm Calm 3.0 mph4.8 kmh 30.04 in1017.3 mb 0.00 in0.0 mm 0.00 in/hr0.0 mm/hr 0.00 in0.0 mm
01:05 PM 88.8°F31.6°C 75.9°F24.4°C 66% Calm Calm 2.0 mph3.2 kmh 30.04 in1017.3 mb 0.00 in0.0 mm 0.00 in/hr0.0 mm/hr 0.00 in0.0 mm
01:10 PM 89.1°F31.7°C 75.7°F24.3°C 65% 1.0 mph E1.6 kmh E 8.0 mph12.9 kmh 30.04 in1017.3 mb 0.00 in0.0 mm 0.00 in/hr0.0 mm/hr 0.00 in0.0 mm
01:15 PM 89.3°F31.8°C 75.4°F24.1°C 64% Calm Calm 7.0 mph11.3 kmh 30.04 in1017.3 mb 0.00 in0.0 mm 0.00 in/hr0.0 mm/hr 0.00 in0.0 mm
01:20 PM 89.9°F32.2°C 76.0°F24.4°C 64% 3.0 mph ESE4.8 kmh ESE 5.0 mph8.0 kmh 30.04 in1017.3 mb 0.00 in0.0 mm 0.00 in/hr0.0 mm/hr 0.00 in0.0 mm
01:25 PM 90.2°F32.3°C 75.8°F24.3°C 63% 2.0 mph ESE3.2 kmh ESE 8.0 mph12.9 kmh 30.04 in1017.3 mb 0.00 in0.0 mm 0.00 in/hr0.0 mm/hr 0.00 in0.0 mm
01:30 PM 90.4°F32.4°C 75.0°F23.9°C 61% 2.0 mph E3.2 kmh E 6.0 mph9.7 kmh 30.04 in1017.3 mb 0.00 in0.0 mm 0.00 in/hr0.0 mm/hr 0.00 in0.0 mm
01:35 PM 90.2°F32.3°C 76.3°F24.6°C 64% Calm Calm 5.0 mph8.0 kmh 30.04 in1017.3 mb 0.00 in0.0 mm 0.00 in/hr0.0 mm/hr 0.00 in0.0 mm
01:40 PM 90.4°F32.4°C 76.5°F24.7°C 64% 3.0 mph E4.8 kmh E 3.0 mph4.8 kmh 30.04 in1017.3 mb 0.00 in0.0 mm 0.00 in/hr0.0 mm/hr 0.00 in0.0 mm
01:45 PM 90.6°F32.6°C 74.2°F23.4°C 59% 1.0 mph ESE1.6 kmh ESE 7.0 mph11.3 kmh 30.04 in1017.3 mb 0.00 in0.0 mm 0.00 in/hr0.0 mm/hr 0.00 in0.0 mm
01:50 PM 91.0°F32.8°C 73.0°F22.8°C 56% 4.0 mph NE6.4 kmh NE 6.0 mph9.7 kmh 30.04 in1017.3 mb 0.00 in0.0 mm 0.00 in/hr0.0 mm/hr 0.00 in0.0 mm
01:55 PM 91.2°F32.9°C 72.7°F22.6°C 55% 3.0 mph E4.8 kmh E 8.0 mph12.9 kmh 30.04 in1017.3 mb 0.00 in0.0 mm 0.00 in/hr0.0 mm/hr 0.00 in0.0 mm
02:00 PM 91.3°F32.9°C 72.8°F22.7°C 55% Calm Calm 5.0 mph8.0 kmh 30.04 in1017.3 mb 0.00 in0.0 mm 0.00 in/hr0.0 mm/hr 0.00 in0.0 mm
02:05 PM 91.3°F32.9°C 72.2°F22.3°C 54% 2.0 mph E3.2 kmh E 3.0 mph4.8 kmh 30.04 in1017.3 mb 0.00 in0.0 mm 0.00 in/hr0.0 mm/hr 0.00 in0.0 mm
02:10 PM 91.6°F33.1°C 73.1°F22.8°C 55% Calm Calm 7.0 mph11.3 kmh 30.03 in1016.9 mb 0.00 in0.0 mm 0.00 in/hr0.0 mm/hr 0.00 in0.0 mm
02:15 PM 91.7°F33.2°C 72.6°F22.6°C 54% Calm Calm 8.0 mph12.9 kmh 30.03 in1016.9 mb 0.00 in0.0 mm 0.00 in/hr0.0 mm/hr 0.00 in0.0 mm
02:20 PM 91.8°F33.2°C 73.8°F23.2°C 56% 1.0 mph E1.6 kmh E 5.0 mph8.0 kmh 30.03 in1016.9 mb 0.00 in0.0 mm 0.00 in/hr0.0 mm/hr 0.00 in0.0 mm
02:25 PM 91.9°F33.3°C 72.2°F22.3°C 53% 2.0 mph E3.2 kmh E 4.0 mph6.4 kmh 30.03 in1016.9 mb 0.00 in0.0 mm 0.00 in/hr0.0 mm/hr 0.00 in0.0 mm
02:30 PM 92.0°F33.3°C 72.9°F22.7°C 54% Calm Calm 3.0 mph4.8 kmh 30.03 in1016.9 mb 0.00 in0.0 mm 0.00 in/hr0.0 mm/hr 0.00 in0.0 mm
02:35 PM 92.1°F33.4°C 73.5°F23.1°C 55% 3.0 mph E4.8 kmh E 6.0 mph9.7 kmh 30.03 in1016.9 mb 0.00 in0.0 mm 0.00 in/hr0.0 mm/hr 0.00 in0.0 mm
02:40 PM 92.3°F33.5°C 73.7°F23.2°C 55% 5.0 mph ESE8.0 kmh ESE 7.0 mph11.3 kmh 30.03 in1016.9 mb 0.00 in0.0 mm 0.00 in/hr0.0 mm/hr 0.00 in0.0 mm
02:45 PM 92.3°F33.5°C 74.2°F23.4°C 56% 3.0 mph E4.8 kmh E 6.0 mph9.7 kmh 30.03 in1016.9 mb 0.00 in0.0 mm 0.00 in/hr0.0 mm/hr 0.00 in0.0 mm
02:50 PM 92.5°F33.6°C 73.3°F22.9°C 54% 5.0 mph E8.0 kmh E 6.0 mph9.7 kmh 30.03 in1016.9 mb 0.00 in0.0 mm 0.00 in/hr0.0 mm/hr 0.00 in0.0 mm
02:55 PM 92.6°F33.7°C 74.0°F23.3°C 55% 3.0 mph E4.8 kmh E 6.0 mph9.7 kmh 30.03 in1016.9 mb 0.00 in0.0 mm 0.00 in/hr0.0 mm/hr 0.00 in0.0 mm
03:00 PM 92.7°F33.7°C 75.1°F23.9°C 57% 3.0 mph E4.8 kmh E 6.0 mph9.7 kmh 30.03 in1016.9 mb 0.00 in0.0 mm 0.00 in/hr0.0 mm/hr 0.00 in0.0 mm
03:05 PM 92.8°F33.8°C 74.2°F23.4°C 55% 2.0 mph E3.2 kmh E 7.0 mph11.3 kmh 30.03 in1016.9 mb 0.00 in0.0 mm 0.00 in/hr0.0 mm/hr 0.00 in0.0 mm
03:10 PM 92.7°F33.7°C 74.1°F23.4°C 55% 3.0 mph ESE4.8 kmh ESE 7.0 mph11.3 kmh 30.03 in1016.9 mb 0.00 in0.0 mm 0.00 in/hr0.0 mm/hr 0.00 in0.0 mm
03:15 PM 92.9°F33.8°C 74.3°F23.5°C 55% 5.0 mph ESE8.0 kmh ESE 8.0 mph12.9 kmh 30.03 in1016.9 mb 0.00 in0.0 mm 0.00 in/hr0.0 mm/hr 0.00 in0.0 mm
03:20 PM 92.9°F33.8°C 73.7°F23.2°C 54% 7.0 mph ESE11.3 kmh ESE 9.0 mph14.5 kmh 30.02 in1016.6 mb 0.00 in0.0 mm 0.00 in/hr0.0 mm/hr 0.00 in0.0 mm
03:25 PM 92.7°F33.7°C 74.6°F23.7°C 56% Calm Calm 7.0 mph11.3 kmh 30.02 in1016.6 mb 0.00 in0.0 mm 0.00 in/hr0.0 mm/hr 0.00 in0.0 mm
03:30 PM 93.0°F33.9°C 74.9°F23.8°C 56% 3.0 mph E4.8 kmh E 7.0 mph11.3 kmh 30.02 in1016.6 mb 0.00 in0.0 mm 0.00 in/hr0.0 mm/hr 0.00 in0.0 mm
03:35 PM 93.0°F33.9°C 75.4°F24.1°C 57% 4.0 mph ESE6.4 kmh ESE 10.0 mph16.1 kmh 30.02 in1016.6 mb 0.00 in0.0 mm 0.00 in/hr0.0 mm/hr 0.00 in0.0 mm
03:40 PM 92.8°F33.8°C 75.2°F24.0°C 57% 3.0 mph E4.8 kmh E 8.0 mph12.9 kmh 30.02 in1016.6 mb 0.00 in0.0 mm 0.00 in/hr0.0 mm/hr 0.00 in0.0 mm
03:45 PM 92.7°F33.7°C 74.6°F23.7°C 56% 1.0 mph E1.6 kmh E 7.0 mph11.3 kmh 30.02 in1016.6 mb 0.00 in0.0 mm 0.00 in/hr0.0 mm/hr 0.00 in0.0 mm
03:50 PM 92.7°F33.7°C 75.1°F23.9°C 57% Calm Calm 8.0 mph12.9 kmh 30.02 in1016.6 mb 0.00 in0.0 mm 0.00 in/hr0.0 mm/hr 0.00 in0.0 mm
03:55 PM 92.9°F33.8°C 75.8°F24.3°C 58% 2.0 mph E3.2 kmh E 3.0 mph4.8 kmh 30.01 in1016.3 mb 0.00 in0.0 mm 0.00 in/hr0.0 mm/hr 0.00 in0.0 mm
04:00 PM 93.0°F33.9°C 74.3°F23.5°C 55% 7.0 mph E11.3 kmh E 8.0 mph12.9 kmh 30.01 in1016.3 mb 0.00 in0.0 mm 0.00 in/hr0.0 mm/hr 0.00 in0.0 mm
04:05 PM 92.9°F33.8°C 74.3°F23.5°C 55% 1.0 mph ESE1.6 kmh ESE 7.0 mph11.3 kmh 30.01 in1016.3 mb 0.00 in0.0 mm 0.00 in/hr0.0 mm/hr 0.00 in0.0 mm
04:10 PM 92.9°F33.8°C 74.8°F23.8°C 56% 3.0 mph ESE4.8 kmh ESE 9.0 mph14.5 kmh 30.01 in1016.3 mb 0.00 in0.0 mm 0.00 in/hr0.0 mm/hr 0.00 in0.0 mm
04:15 PM 92.7°F33.7°C 74.1°F23.4°C 55% 3.0 mph ESE4.8 kmh ESE 8.0 mph12.9 kmh 30.01 in1016.3 mb 0.00 in0.0 mm 0.00 in/hr0.0 mm/hr 0.00 in0.0 mm
04:20 PM 92.7°F33.7°C 74.6°F23.7°C 56% 5.0 mph E8.0 kmh E 8.0 mph12.9 kmh 30.01 in1016.3 mb 0.00 in0.0 mm 0.00 in/hr0.0 mm/hr 0.00 in0.0 mm
04:25 PM 92.8°F33.8°C 74.2°F23.4°C 55% 4.0 mph ESE6.4 kmh ESE 9.0 mph14.5 kmh 30.01 in1016.3 mb 0.00 in0.0 mm 0.00 in/hr0.0 mm/hr 0.00 in0.0 mm
04:30 PM 92.6°F33.7°C 74.0°F23.3°C 55% 7.0 mph ESE11.3 kmh ESE 10.0 mph16.1 kmh 30.01 in1016.3 mb 0.00 in0.0 mm 0.00 in/hr0.0 mm/hr 0.00 in0.0 mm
04:35 PM 92.7°F33.7°C 74.6°F23.7°C 56% 3.0 mph E4.8 kmh E 9.0 mph14.5 kmh 30.01 in1016.3 mb 0.00 in0.0 mm 0.00 in/hr0.0 mm/hr 0.00 in0.0 mm
04:40 PM 92.8°F33.8°C 73.6°F23.1°C 54% 7.0 mph ESE11.3 kmh ESE 7.0 mph11.3 kmh 30.01 in1016.3 mb 0.00 in0.0 mm 0.00 in/hr0.0 mm/hr 0.00 in0.0 mm
04:45 PM 92.9°F33.8°C 73.7°F23.2°C 54% 5.0 mph E8.0 kmh E 8.0 mph12.9 kmh 30.01 in1016.3 mb 0.00 in0.0 mm 0.00 in/hr0.0 mm/hr 0.00 in0.0 mm
04:50 PM 93.1°F33.9°C 73.9°F23.3°C 54% 3.0 mph ESE4.8 kmh ESE 7.0 mph11.3 kmh 30.01 in1016.3 mb 0.00 in0.0 mm 0.00 in/hr0.0 mm/hr 0.00 in0.0 mm
04:55 PM 93.1°F33.9°C 73.9°F23.3°C 54% 5.0 mph E8.0 kmh E 9.0 mph14.5 kmh 30.01 in1016.3 mb 0.00 in0.0 mm 0.00 in/hr0.0 mm/hr 0.00 in0.0 mm
05:00 PM 92.6°F33.7°C 73.4°F23.0°C 54% 4.0 mph SE6.4 kmh SE 7.0 mph11.3 kmh 30.01 in1016.3 mb 0.00 in0.0 mm 0.00 in/hr0.0 mm/hr 0.00 in0.0 mm
05:05 PM 92.7°F33.7°C 73.5°F23.1°C 54% 3.0 mph ESE4.8 kmh ESE 7.0 mph11.3 kmh 30.01 in1016.3 mb 0.00 in0.0 mm 0.00 in/hr0.0 mm/hr 0.00 in0.0 mm
05:10 PM 92.7°F33.7°C 73.5°F23.1°C 54% 4.0 mph E6.4 kmh E 8.0 mph12.9 kmh 30.01 in1016.3 mb 0.00 in0.0 mm 0.00 in/hr0.0 mm/hr 0.00 in0.0 mm
05:15 PM 93.0°F33.9°C 73.8°F23.2°C 54% 3.0 mph E4.8 kmh E 5.0 mph8.0 kmh 30.01 in1016.3 mb 0.00 in0.0 mm 0.00 in/hr0.0 mm/hr 0.00 in0.0 mm
05:20 PM 93.1°F33.9°C 72.2°F22.3°C 51% Calm Calm 10.0 mph16.1 kmh 30.00 in1015.9 mb 0.00 in0.0 mm 0.00 in/hr0.0 mm/hr 0.00 in0.0 mm
05:25 PM 93.2°F34.0°C 73.4°F23.0°C 53% Calm Calm 7.0 mph11.3 kmh 30.01 in1016.3 mb 0.00 in0.0 mm 0.00 in/hr0.0 mm/hr 0.00 in0.0 mm
05:30 PM 93.3°F34.1°C 72.4°F22.4°C 51% 2.0 mph ESE3.2 kmh ESE 9.0 mph14.5 kmh 30.01 in1016.3 mb 0.00 in0.0 mm 0.00 in/hr0.0 mm/hr 0.00 in0.0 mm
05:35 PM 93.1°F33.9°C 72.8°F22.7°C 52% 2.0 mph E3.2 kmh E 7.0 mph11.3 kmh 30.01 in1016.3 mb 0.00 in0.0 mm 0.00 in/hr0.0 mm/hr 0.00 in0.0 mm
05:40 PM 93.2°F34.0°C 72.9°F22.7°C 52% Calm Calm 2.0 mph3.2 kmh 30.01 in1016.3 mb 0.00 in0.0 mm 0.00 in/hr0.0 mm/hr 0.00 in0.0 mm
05:45 PM 93.3°F34.1°C 72.4°F22.4°C 51% 2.0 mph E3.2 kmh E 7.0 mph11.3 kmh 30.01 in1016.3 mb 0.00 in0.0 mm 0.00 in/hr0.0 mm/hr 0.00 in0.0 mm
05:50 PM 93.1°F33.9°C 72.8°F22.7°C 52% 3.0 mph ESE4.8 kmh ESE 10.0 mph16.1 kmh 30.01 in1016.3 mb 0.00 in0.0 mm 0.00 in/hr0.0 mm/hr 0.00 in0.0 mm
05:55 PM 92.9°F33.8°C 72.6°F22.6°C 52% 1.0 mph ESE1.6 kmh ESE 7.0 mph11.3 kmh 30.01 in1016.3 mb 0.00 in0.0 mm 0.00 in/hr0.0 mm/hr 0.00 in0.0 mm
06:00 PM 92.7°F33.7°C 73.0°F22.8°C 53% 3.0 mph ESE4.8 kmh ESE 8.0 mph12.9 kmh 30.00 in1015.9 mb 0.00 in0.0 mm 0.00 in/hr0.0 mm/hr 0.00 in0.0 mm
06:05 PM 92.4°F33.6°C 72.1°F22.3°C 52% 2.0 mph ESE3.2 kmh ESE 5.0 mph8.0 kmh 30.00 in1015.9 mb 0.00 in0.0 mm 0.00 in/hr0.0 mm/hr 0.00 in0.0 mm
06:10 PM 92.1°F33.4°C 73.0°F22.8°C 54% 7.0 mph SE11.3 kmh SE 9.0 mph14.5 kmh 30.00 in1015.9 mb 0.00 in0.0 mm 0.00 in/hr0.0 mm/hr 0.00 in0.0 mm
06:15 PM 91.7°F33.2°C 73.1°F22.8°C 55% Calm Calm 8.0 mph12.9 kmh 30.00 in1015.9 mb 0.00 in0.0 mm 0.00 in/hr0.0 mm/hr 0.00 in0.0 mm
06:20 PM 91.5°F33.1°C 73.5°F23.1°C 56% 2.0 mph E3.2 kmh E 7.0 mph11.3 kmh 30.00 in1015.9 mb 0.00 in0.0 mm 0.00 in/hr0.0 mm/hr 0.00 in0.0 mm
06:25 PM 91.4°F33.0°C 73.4°F23.0°C 56% 3.0 mph E4.8 kmh E 6.0 mph9.7 kmh 30.00 in1015.9 mb 0.00 in0.0 mm 0.00 in/hr0.0 mm/hr 0.00 in0.0 mm
06:30 PM 91.3°F32.9°C 73.8°F23.2°C 57% 2.0 mph E3.2 kmh E 9.0 mph14.5 kmh 30.00 in1015.9 mb 0.00 in0.0 mm 0.00 in/hr0.0 mm/hr 0.00 in0.0 mm
06:35 PM 91.3°F32.9°C 73.8°F23.2°C 57% 2.0 mph E3.2 kmh E 7.0 mph11.3 kmh 30.00 in1015.9 mb 0.00 in0.0 mm 0.00 in/hr0.0 mm/hr 0.00 in0.0 mm
06:40 PM 91.5°F33.1°C 73.5°F23.1°C 56% 2.0 mph ESE3.2 kmh ESE 8.0 mph12.9 kmh 30.00 in1015.9 mb 0.00 in0.0 mm 0.00 in/hr0.0 mm/hr 0.00 in0.0 mm
06:45 PM 91.6°F33.1°C 74.1°F23.4°C 57% 3.0 mph E4.8 kmh E 9.0 mph14.5 kmh 30.00 in1015.9 mb 0.00 in0.0 mm 0.00 in/hr0.0 mm/hr 0.00 in0.0 mm
06:50 PM 91.4°F33.0°C 75.0°F23.9°C 59% 2.0 mph E3.2 kmh E 9.0 mph14.5 kmh 30.00 in1015.9 mb 0.00 in0.0 mm 0.00 in/hr0.0 mm/hr 0.00 in0.0 mm
06:55 PM 91.0°F32.8°C 75.1°F23.9°C 60% 2.0 mph ESE3.2 kmh ESE 10.0 mph16.1 kmh 30.00 in1015.9 mb 0.00 in0.0 mm 0.00 in/hr0.0 mm/hr 0.00 in0.0 mm
07:00 PM 90.7°F32.6°C 74.8°F23.8°C 60% 1.0 mph E1.6 kmh E 10.0 mph16.1 kmh 30.00 in1015.9 mb 0.00 in0.0 mm 0.00 in/hr0.0 mm/hr 0.00 in0.0 mm
07:05 PM 90.5°F32.5°C 74.6°F23.7°C 60% 9.0 mph ESE14.5 kmh ESE 9.0 mph14.5 kmh 30.00 in1015.9 mb 0.00 in0.0 mm 0.00 in/hr0.0 mm/hr 0.00 in0.0 mm
07:10 PM 90.4°F32.4°C 74.5°F23.6°C 60% 5.0 mph E8.0 kmh E 10.0 mph16.1 kmh 30.00 in1015.9 mb 0.00 in0.0 mm 0.00 in/hr0.0 mm/hr 0.00 in0.0 mm
07:15 PM 90.2°F32.3°C 74.3°F23.5°C 60% 5.0 mph E8.0 kmh E 7.0 mph11.3 kmh 30.00 in1015.9 mb 0.00 in0.0 mm 0.00 in/hr0.0 mm/hr 0.00 in0.0 mm
07:20 PM 90.1°F32.3°C 74.3°F23.5°C 60% 7.0 mph ESE11.3 kmh ESE 8.0 mph12.9 kmh 30.00 in1015.9 mb 0.00 in0.0 mm 0.00 in/hr0.0 mm/hr 0.00 in0.0 mm
07:25 PM 89.8°F32.1°C 73.0°F22.8°C 58% 3.0 mph E4.8 kmh E 9.0 mph14.5 kmh 30.00 in1015.9 mb 0.00 in0.0 mm 0.00 in/hr0.0 mm/hr 0.00 in0.0 mm
07:30 PM 89.6°F32.0°C 73.3°F22.9°C 59% 2.0 mph E3.2 kmh E 7.0 mph11.3 kmh 30.01 in1016.3 mb 0.00 in0.0 mm 0.00 in/hr0.0 mm/hr 0.00 in0.0 mm
07:35 PM 89.4°F31.9°C 72.1°F22.3°C 57% 5.0 mph E8.0 kmh E 8.0 mph12.9 kmh 30.01 in1016.3 mb 0.00 in0.0 mm 0.00 in/hr0.0 mm/hr 0.00 in0.0 mm
07:40 PM 89.2°F31.8°C 71.4°F21.9°C 56% 1.0 mph E1.6 kmh E 8.0 mph12.9 kmh 30.01 in1016.3 mb 0.00 in0.0 mm 0.00 in/hr0.0 mm/hr 0.00 in0.0 mm
07:45 PM 89.1°F31.7°C 70.7°F21.5°C 55% 7.0 mph ESE11.3 kmh ESE 8.0 mph12.9 kmh 30.01 in1016.3 mb 0.00 in0.0 mm 0.00 in/hr0.0 mm/hr 0.00 in0.0 mm
07:50 PM 88.9°F31.6°C 71.1°F21.7°C 56% 3.0 mph E4.8 kmh E 7.0 mph11.3 kmh 30.01 in1016.3 mb 0.00 in0.0 mm 0.00 in/hr0.0 mm/hr 0.00 in0.0 mm
07:55 PM 88.7°F31.5°C 71.4°F21.9°C 57% 2.0 mph E3.2 kmh E 5.0 mph8.0 kmh 30.01 in1016.3 mb 0.00 in0.0 mm 0.00 in/hr0.0 mm/hr 0.00 in0.0 mm
08:00 PM 88.5°F31.4°C 70.7°F21.5°C 56% 3.0 mph E4.8 kmh E 6.0 mph9.7 kmh 30.01 in1016.3 mb 0.00 in0.0 mm 0.00 in/hr0.0 mm/hr 0.00 in0.0 mm
08:05 PM 88.4°F31.3°C 70.6°F21.4°C 56% 2.0 mph E3.2 kmh E 5.0 mph8.0 kmh 30.01 in1016.3 mb 0.00 in0.0 mm 0.00 in/hr0.0 mm/hr 0.00 in0.0 mm
08:10 PM 88.2°F31.2°C 71.0°F21.7°C 57% 2.0 mph E3.2 kmh E 5.0 mph8.0 kmh 30.01 in1016.3 mb 0.00 in0.0 mm 0.00 in/hr0.0 mm/hr 0.00 in0.0 mm
08:15 PM 87.9°F31.1°C 71.2°F21.8°C 58% 1.0 mph E1.6 kmh E 4.0 mph6.4 kmh 30.01 in1016.3 mb 0.00 in0.0 mm 0.00 in/hr0.0 mm/hr 0.00 in0.0 mm
08:20 PM 87.7°F30.9°C 71.0°F21.7°C 58% 2.0 mph E3.2 kmh E 3.0 mph4.8 kmh 30.02 in1016.6 mb 0.00 in0.0 mm 0.00 in/hr0.0 mm/hr 0.00 in0.0 mm
08:25 PM 87.5°F30.8°C 71.3°F21.8°C 59% 1.0 mph E1.6 kmh E 2.0 mph3.2 kmh 30.01 in1016.3 mb 0.00 in0.0 mm 0.00 in/hr0.0 mm/hr 0.00 in0.0 mm
08:30 PM 87.3°F30.7°C 71.1°F21.7°C 59% Calm Calm 2.0 mph3.2 kmh 30.02 in1016.6 mb 0.00 in0.0 mm 0.00 in/hr0.0 mm/hr 0.00 in0.0 mm
08:35 PM 87.0°F30.6°C 71.4°F21.9°C 60% Calm Calm 2.0 mph3.2 kmh 30.02 in1016.6 mb 0.00 in0.0 mm 0.00 in/hr0.0 mm/hr 0.00 in0.0 mm
08:40 PM 86.8°F30.4°C 71.7°F22.1°C 61% Calm Calm 1.0 mph1.6 kmh 30.02 in1016.6 mb 0.00 in0.0 mm 0.00 in/hr0.0 mm/hr 0.00 in0.0 mm
08:45 PM 86.6°F30.3°C 71.5°F21.9°C 61% Calm Calm 1.0 mph1.6 kmh 30.02 in1016.6 mb 0.00 in0.0 mm 0.00 in/hr0.0 mm/hr 0.00 in0.0 mm
08:50 PM 86.3°F30.2°C 71.7°F22.1°C 62% Calm Calm -- 30.02 in1016.6 mb 0.00 in0.0 mm 0.00 in/hr0.0 mm/hr 0.00 in0.0 mm
08:55 PM 86.1°F30.1°C 71.9°F22.2°C 63% Calm Calm 2.0 mph3.2 kmh 30.01 in1016.3 mb 0.00 in0.0 mm 0.00 in/hr0.0 mm/hr 0.00 in0.0 mm
09:00 PM 85.8°F29.9°C 72.1°F22.3°C 64% Calm Calm 1.0 mph1.6 kmh 30.02 in1016.6 mb 0.00 in0.0 mm 0.00 in/hr0.0 mm/hr 0.00 in0.0 mm
09:05 PM 85.6°F29.8°C 72.4°F22.4°C 65% Calm Calm -- 30.01 in1016.3 mb 0.00 in0.0 mm 0.00 in/hr0.0 mm/hr 0.00 in0.0 mm
09:10 PM 85.4°F29.7°C 72.7°F22.6°C 66% Calm Calm 1.0 mph1.6 kmh 30.01 in1016.3 mb 0.00 in0.0 mm 0.00 in/hr0.0 mm/hr 0.00 in0.0 mm
09:15 PM 85.2°F29.6°C 72.9°F22.7°C 67% Calm Calm 1.0 mph1.6 kmh 30.01 in1016.3 mb 0.00 in0.0 mm 0.00 in/hr0.0 mm/hr 0.00 in0.0 mm
09:20 PM 85.1°F29.5°C 72.8°F22.7°C 67% Calm Calm 1.0 mph1.6 kmh 30.02 in1016.6 mb 0.00 in0.0 mm 0.00 in/hr0.0 mm/hr 0.00 in0.0 mm
09:25 PM 84.9°F29.4°C 73.1°F22.8°C 68% 3.0 mph E4.8 kmh E 3.0 mph4.8 kmh 30.02 in1016.6 mb 0.00 in0.0 mm 0.00 in/hr0.0 mm/hr 0.00 in0.0 mm
09:30 PM 84.7°F29.3°C 73.3°F22.9°C 69% 5.0 mph E8.0 kmh E 5.0 mph8.0 kmh 30.02 in1016.6 mb 0.00 in0.0 mm 0.00 in/hr0.0 mm/hr 0.00 in0.0 mm
09:35 PM 84.7°F29.3°C 73.3°F22.9°C 69% 2.0 mph E3.2 kmh E 6.0 mph9.7 kmh 30.02 in1016.6 mb 0.00 in0.0 mm 0.00 in/hr0.0 mm/hr 0.00 in0.0 mm
09:40 PM 84.7°F29.3°C 73.3°F22.9°C 69% 3.0 mph E4.8 kmh E 5.0 mph8.0 kmh 30.02 in1016.6 mb 0.00 in0.0 mm 0.00 in/hr0.0 mm/hr 0.00 in0.0 mm
09:45 PM 84.7°F29.3°C 73.3°F22.9°C 69% 2.0 mph E3.2 kmh E 8.0 mph12.9 kmh 30.03 in1016.9 mb 0.00 in0.0 mm 0.00 in/hr0.0 mm/hr 0.00 in0.0 mm
09:50 PM 84.6°F29.2°C 73.2°F22.9°C 69% 1.0 mph E1.6 kmh E 5.0 mph8.0 kmh 30.03 in1016.9 mb 0.00 in0.0 mm 0.00 in/hr0.0 mm/hr 0.00 in0.0 mm
09:55 PM 84.6°F29.2°C 72.8°F22.7°C 68% 6.0 mph E9.7 kmh E 6.0 mph9.7 kmh 30.03 in1016.9 mb 0.00 in0.0 mm 0.00 in/hr0.0 mm/hr 0.00 in0.0 mm
10:00 PM 84.6°F29.2°C 72.8°F22.7°C 68% 5.0 mph E8.0 kmh E 6.0 mph9.7 kmh 30.03 in1016.9 mb 0.00 in0.0 mm 0.00 in/hr0.0 mm/hr 0.00 in0.0 mm
10:05 PM 84.6°F29.2°C 72.8°F22.7°C 68% 2.0 mph E3.2 kmh E 7.0 mph11.3 kmh 30.03 in1016.9 mb 0.00 in0.0 mm 0.00 in/hr0.0 mm/hr 0.00 in0.0 mm
10:10 PM 84.5°F29.2°C 72.7°F22.6°C 68% Calm Calm 6.0 mph9.7 kmh 30.03 in1016.9 mb 0.00 in0.0 mm 0.00 in/hr0.0 mm/hr 0.00 in0.0 mm
10:15 PM 84.4°F29.1°C 73.0°F22.8°C 69% 2.0 mph E3.2 kmh E 3.0 mph4.8 kmh 30.03 in1016.9 mb 0.00 in0.0 mm 0.00 in/hr0.0 mm/hr 0.00 in0.0 mm
10:20 PM 84.2°F29.0°C 73.3°F22.9°C 70% 2.0 mph E3.2 kmh E 5.0 mph8.0 kmh 30.03 in1016.9 mb 0.00 in0.0 mm 0.00 in/hr0.0 mm/hr 0.00 in0.0 mm
10:25 PM 83.9°F28.8°C 73.0°F22.8°C 70% 3.0 mph E4.8 kmh E 8.0 mph12.9 kmh 30.04 in1017.3 mb 0.00 in0.0 mm 0.00 in/hr0.0 mm/hr 0.00 in0.0 mm
10:30 PM 83.8°F28.8°C 72.9°F22.7°C 70% 7.0 mph E11.3 kmh E 8.0 mph12.9 kmh 30.04 in1017.3 mb 0.00 in0.0 mm 0.00 in/hr0.0 mm/hr 0.00 in0.0 mm
10:35 PM 83.8°F28.8°C 72.9°F22.7°C 70% 1.0 mph E1.6 kmh E 7.0 mph11.3 kmh 30.03 in1016.9 mb 0.00 in0.0 mm 0.00 in/hr0.0 mm/hr 0.00 in0.0 mm
10:40 PM 83.7°F28.7°C 72.8°F22.7°C 70% 2.0 mph E3.2 kmh E 4.0 mph6.4 kmh 30.03 in1016.9 mb 0.00 in0.0 mm 0.00 in/hr0.0 mm/hr 0.00 in0.0 mm
10:45 PM 83.5°F28.6°C 72.6°F22.6°C 70% 1.0 mph E1.6 kmh E 4.0 mph6.4 kmh 30.04 in1017.3 mb 0.00 in0.0 mm 0.00 in/hr0.0 mm/hr 0.00 in0.0 mm
10:50 PM 83.4°F28.6°C 72.9°F22.7°C 71% 2.0 mph E3.2 kmh E 4.0 mph6.4 kmh 30.04 in1017.3 mb 0.00 in0.0 mm 0.00 in/hr0.0 mm/hr 0.00 in0.0 mm
10:55 PM 83.1°F28.4°C 72.6°F22.6°C 71% 1.0 mph E1.6 kmh E 3.0 mph4.8 kmh 30.04 in1017.3 mb 0.00 in0.0 mm 0.00 in/hr0.0 mm/hr 0.00 in0.0 mm
11:00 PM 83.0°F28.3°C 73.0°F22.8°C 72% Calm Calm 2.0 mph3.2 kmh 30.04 in1017.3 mb 0.00 in0.0 mm 0.00 in/hr0.0 mm/hr 0.00 in0.0 mm
11:05 PM 82.8°F28.2°C 72.8°F22.7°C 72% Calm Calm 1.0 mph1.6 kmh 30.04 in1017.3 mb 0.00 in0.0 mm 0.00 in/hr0.0 mm/hr 0.00 in0.0 mm
11:10 PM 82.6°F28.1°C 73.0°F22.8°C 73% Calm Calm 3.0 mph4.8 kmh 30.04 in1017.3 mb 0.00 in0.0 mm 0.00 in/hr0.0 mm/hr 0.00 in0.0 mm
11:15 PM 82.5°F28.1°C 72.9°F22.7°C 73% Calm Calm 1.0 mph1.6 kmh 30.04 in1017.3 mb 0.00 in0.0 mm 0.00 in/hr0.0 mm/hr 0.00 in0.0 mm
11:20 PM 82.3°F27.9°C 72.7°F22.6°C 73% Calm Calm 1.0 mph1.6 kmh 30.04 in1017.3 mb 0.00 in0.0 mm 0.00 in/hr0.0 mm/hr 0.00 in0.0 mm
11:25 PM 82.2°F27.9°C 73.0°F22.8°C 74% Calm Calm -- 30.04 in1017.3 mb 0.00 in0.0 mm 0.00 in/hr0.0 mm/hr 0.00 in0.0 mm
11:30 PM 82.1°F27.8°C 72.9°F22.7°C 74% Calm Calm -- 30.05 in1017.6 mb 0.00 in0.0 mm 0.00 in/hr0.0 mm/hr 0.00 in0.0 mm
11:35 PM 82.0°F27.8°C 72.8°F22.7°C 74% Calm Calm -- 30.04 in1017.3 mb 0.00 in0.0 mm 0.00 in/hr0.0 mm/hr 0.00 in0.0 mm
11:40 PM 81.8°F27.7°C 72.6°F22.6°C 74% Calm Calm 1.0 mph1.6 kmh 30.05 in1017.6 mb 0.00 in0.0 mm 0.00 in/hr0.0 mm/hr 0.00 in0.0 mm
11:45 PM 81.6°F27.6°C 72.8°F22.7°C 75% Calm Calm 1.0 mph1.6 kmh 30.05 in1017.6 mb 0.00 in0.0 mm 0.00 in/hr0.0 mm/hr 0.00 in0.0 mm
11:50 PM 81.4°F27.4°C 72.6°F22.6°C 75% Calm Calm -- 30.04 in1017.3 mb 0.00 in0.0 mm 0.00 in/hr0.0 mm/hr 0.00 in0.0 mm
11:55 PM 81.3°F27.4°C 72.5°F22.5°C 75% Calm Calm -- 30.05 in1017.6 mb 0.00 in0.0 mm 0.00 in/hr0.0 mm/hr 0.00 in0.0 mm